createdAt,value
2022-09-13T05:45:20.426Z,4.63
2022-09-13T06:03:01.422Z,4.33
2022-09-13T06:16:53.569Z,3.93
2022-09-13T06:21:47.426Z,4.43
2022-09-13T06:35:12.424Z,4.33
2022-09-13T06:40:06.949Z,5.00
2022-09-13T06:54:16.234Z,5.30
2022-09-13T07:10:39.765Z,3.80
2022-09-13T07:25:19.648Z,3.90
2022-09-13T07:39:58.964Z,3.27
2022-09-13T07:54:19.841Z,4.13
2022-09-13T07:59:15.249Z,4.17
2022-09-13T08:13:33.366Z,3.78
2022-09-13T08:18:26.803Z,3.83
2022-09-13T08:23:20.385Z,3.20
2022-09-13T08:28:17.777Z,3.25
2022-09-13T08:33:13.686Z,3.35
2022-09-13T08:38:07.697Z,3.53
2022-09-13T08:51:49.340Z,3.53
2022-09-13T08:56:47.376Z,2.90
2022-09-13T09:01:52.368Z,2.97
2022-09-13T09:06:47.928Z,3.00
2022-09-13T09:11:48.569Z,3.30
2022-09-13T09:16:47.844Z,2.90
2022-09-13T09:21:42.314Z,2.65
2022-09-13T09:26:37.443Z,2.72
2022-09-13T09:31:43.960Z,2.70
2022-09-13T09:36:43.482Z,3.22
2022-09-13T09:41:38.933Z,3.15
2022-09-13T09:46:35.724Z,2.80
2022-09-13T09:51:31.351Z,3.00
2022-09-13T09:56:27.361Z,3.28
2022-09-13T10:01:26.127Z,3.53
2022-09-13T10:06:23.056Z,3.08
2022-09-13T10:11:16.700Z,3.55
2022-09-13T10:16:27.359Z,3.25
2022-09-13T10:21:26.169Z,3.28
2022-09-13T10:26:22.182Z,3.28
2022-09-13T10:31:17.815Z,2.95
2022-09-13T10:36:41.244Z,3.10
2022-09-13T10:41:38.812Z,3.00
2022-09-13T10:46:36.414Z,2.70
2022-09-13T10:51:38.967Z,3.00
2022-09-13T10:56:32.436Z,3.45
2022-09-13T11:01:42.277Z,3.25
2022-09-13T11:06:43.926Z,2.88
2022-09-13T11:11:42.868Z,3.28
2022-09-13T11:16:50.430Z,3.08
2022-09-13T11:22:09.032Z,3.20
2022-09-13T11:27:07.743Z,3.47
2022-09-13T11:32:10.055Z,3.03
2022-09-13T11:37:27.129Z,3.13
2022-09-13T11:42:34.617Z,3.30
2022-09-13T11:47:39.383Z,3.42
2022-09-13T11:52:46.640Z,3.15
2022-09-13T11:57:44.875Z,3.53
2022-09-13T12:02:44.038Z,3.17
2022-09-13T12:07:43.971Z,3.30
2022-09-13T12:12:38.374Z,3.17
2022-09-13T12:17:38.577Z,2.80
2022-09-13T12:22:36.127Z,2.80
2022-09-13T12:27:40.377Z,3.05
2022-09-13T12:32:34.312Z,2.83
2022-09-13T12:38:18.676Z,2.70
2022-09-13T12:43:32.035Z,3.10
2022-09-13T12:49:15.900Z,3.30
2022-09-13T12:54:45.154Z,3.13
2022-09-13T13:00:00.060Z,3.25
2022-09-13T13:04:57.363Z,2.80
2022-09-13T13:09:53.882Z,3.10
2022-09-13T13:14:53.836Z,2.97
2022-09-13T13:19:47.509Z,3.25
2022-09-13T13:24:48.168Z,3.08
2022-09-13T13:29:41.812Z,3.58
2022-09-13T13:34:43.578Z,3.20
2022-09-13T13:39:40.319Z,3.30
2022-09-13T13:45:16.063Z,3.28
2022-09-13T13:50:16.573Z,3.17
2022-09-13T13:55:39.683Z,3.28
2022-09-13T14:00:37.563Z,3.50
2022-09-13T14:05:38.689Z,3.08
2022-09-13T14:10:41.759Z,3.40
2022-09-13T14:15:51.247Z,2.88
2022-09-13T14:21:03.192Z,3.08
2022-09-13T14:25:58.478Z,3.15
2022-09-13T14:30:55.845Z,2.88
2022-09-13T14:35:57.689Z,2.92
2022-09-13T14:40:54.284Z,2.90
2022-09-13T14:45:50.542Z,2.83
2022-09-13T14:50:51.264Z,2.88
2022-09-13T14:55:50.519Z,2.63
2022-09-13T15:00:52.138Z,2.70
2022-09-13T15:05:53.409Z,2.60
2022-09-13T15:10:46.983Z,3.83
2022-09-13T15:15:41.412Z,3.20
2022-09-13T15:20:50.659Z,3.28
2022-09-13T15:25:51.419Z,3.55
2022-09-13T15:30:46.371Z,2.83
2022-09-13T15:35:41.752Z,2.88
2022-09-13T15:40:45.711Z,3.05
2022-09-13T15:45:39.272Z,2.70
2022-09-13T15:50:37.141Z,2.92
2022-09-13T15:55:32.312Z,3.45
2022-09-13T16:00:28.667Z,2.60
2022-09-13T16:05:22.655Z,2.80
2022-09-13T16:10:18.264Z,2.95
2022-09-13T16:15:12.987Z,2.67
2022-09-13T16:20:09.589Z,3.03
2022-09-13T16:25:03.505Z,2.70
2022-09-13T16:29:57.203Z,2.92
2022-09-13T16:34:52.449Z,2.70
2022-09-13T16:39:47.612Z,2.90
2022-09-13T16:44:41.208Z,4.90
2022-09-13T16:49:34.692Z,8.93
2022-09-13T16:54:30.328Z,6.28
2022-09-13T16:59:25.549Z,4.72
2022-09-13T17:04:19.084Z,3.42
2022-09-13T17:09:12.662Z,3.88
2022-09-13T17:14:08.375Z,3.22
2022-09-13T17:19:06.841Z,3.70
2022-09-13T17:24:00.633Z,6.65
2022-09-13T17:28:54.825Z,8.30
2022-09-13T17:33:48.632Z,9.93
2022-09-13T17:38:44.389Z,5.20
2022-09-13T17:43:38.590Z,4.72
2022-09-13T17:48:32.191Z,4.25
2022-09-13T17:53:27.027Z,4.55
2022-09-13T17:58:22.416Z,4.30
2022-09-13T18:03:16.578Z,3.97
2022-09-13T18:08:10.381Z,4.10
2022-09-13T18:13:03.953Z,4.22
2022-09-13T18:17:59.271Z,4.63
2022-09-13T18:22:53.198Z,4.20
2022-09-13T18:27:46.832Z,4.80
2022-09-13T18:32:40.542Z,4.88
2022-09-13T18:37:37.019Z,4.53
2022-09-13T18:42:33.355Z,4.82
2022-09-13T18:47:29.319Z,4.72
2022-09-13T18:52:23.071Z,4.72
2022-09-13T18:57:18.448Z,4.90
2022-09-13T19:02:13.034Z,5.47
2022-09-13T19:07:07.759Z,5.10
2022-09-13T19:12:02.676Z,5.47
2022-09-13T19:17:01.271Z,6.18
2022-09-13T19:21:55.248Z,5.85
2022-09-13T19:26:51.043Z,5.57
2022-09-13T19:31:47.847Z,4.80
2022-09-13T19:36:44.496Z,4.88
2022-09-13T19:41:39.840Z,4.65
2022-09-13T19:46:35.862Z,5.25
